Time;durP1;ratioP1;P1;durP2;ratioP2;P2;SDS_P1;SDS_P2;PMS_P1;PMS_P2;Temp;Humidity;BMP_temperature;BMP_pressure;BME280_temperature;BME280_humidity;BME280_pressure;Samples;Min_cycle;Max_cycle;Signal;HPM_P1;HPM_P2
2022/11/18 00:00:44;;;;;;;4.55;1.00;;;;;;;5.41;100.00;91212.53;2132086;27;20036;-71
2022/11/18 00:01:45;;;;;;;1.83;1.30;;;;;;;5.39;100.00;91212.22;2131937;27;20033;-71
2022/11/18 00:02:46;;;;;;;3.72;1.20;;;;;;;5.42;100.00;91219.31;2131931;27;20025;-72
2022/11/18 00:03:49;;;;;;;1.20;0.98;;;;;;;5.58;100.00;91210.47;2131488;27;20458;-71
2022/11/18 00:04:50;;;;;;;1.33;1.23;;;;;;;5.52;100.00;91218.22;2132080;27;20139;-72
2022/11/18 00:05:55;;;;;;;2.30;1.10;;;;;;;5.52;100.00;91226.91;2131927;27;20064;-71
2022/11/18 00:06:56;;;;;;;3.22;1.10;;;;;;;5.53;100.00;91222.31;2122498;27;20038;-72
2022/11/18 00:07:57;;;;;;;1.63;0.98;;;;;;;5.49;100.00;91225.13;2122756;27;20032;-72
2022/11/18 00:08:59;;;;;;;1.13;1.02;;;;;;;5.62;100.00;91229.59;2130276;27;20042;-72
2022/11/18 00:10:00;;;;;;;2.45;1.10;;;;;;;5.60;100.00;91224.75;2131854;27;20457;-72
2022/11/18 00:11:07;;;;;;;1.88;1.10;;;;;;;5.48;100.00;91236.13;2131909;27;20044;-71
2022/11/18 00:15:01;;;;;;;5.70;1.50;;;;;;;5.41;100.00;91236.38;2106899;28;20032;-71
2022/11/18 00:16:08;;;;;;;2.05;1.15;;;;;;;5.40;100.00;91240.19;2123376;27;20031;-71
2022/11/18 00:17:08;;;;;;;1.98;1.15;;;;;;;5.40;100.00;91229.59;2131925;27;20058;-72
2022/11/18 00:18:09;;;;;;;2.83;1.30;;;;;;;5.42;100.00;91232.56;2131465;27;20047;-71
2022/11/18 00:19:10;;;;;;;1.10;1.10;;;;;;;5.42;100.00;91232.56;2131726;27;20019;-71
2022/11/18 00:20:11;;;;;;;1.10;1.00;;;;;;;5.40;100.00;91230.34;2131670;27;20047;-71
2022/11/18 00:21:12;;;;;;;1.92;0.90;;;;;;;5.39;100.00;91222.81;2131782;27;20038;-71
2022/11/18 00:22:13;;;;;;;5.88;1.10;;;;;;;5.39;100.00;91225.47;2132102;27;20018;-71
2022/11/18 00:23:14;;;;;;;1.55;1.00;;;;;;;5.43;100.00;91221.53;2131865;27;20023;-71
2022/11/18 00:24:15;;;;;;;0.70;0.70;;;;;;;5.44;100.00;91224.91;2131762;27;20019;-71
2022/11/18 00:25:16;;;;;;;3.80;1.00;;;;;;;5.42;100.00;91217.41;2130981;27;20026;-71
2022/11/18 00:26:17;;;;;;;0.93;0.77;;;;;;;5.39;100.00;91215.59;2131561;27;20587;-72
2022/11/18 00:27:18;;;;;;;1.20;0.95;;;;;;;5.42;100.00;91214.00;2131831;27;20465;-72
2022/11/18 00:28:19;;;;;;;3.53;1.00;;;;;;;5.41;100.00;91215.19;2131692;27;20503;-71
2022/11/18 00:29:21;;;;;;;3.58;1.35;;;;;;;5.39;100.00;91222.81;2131835;27;20449;-72
2022/11/18 00:30:22;;;;;;;4.05;1.10;;;;;;;5.40;100.00;91214.44;2131137;27;20383;-72
2022/11/18 00:31:23;;;;;;;2.58;1.05;;;;;;;5.40;100.00;91222.41;2131973;27;20051;-72
2022/11/18 00:32:23;;;;;;;3.70;0.90;;;;;;;5.37;100.00;91217.94;2131889;27;20463;-71
2022/11/18 00:33:24;;;;;;;1.85;0.90;;;;;;;5.34;100.00;91218.78;2131638;27;20346;-71
2022/11/18 00:34:25;;;;;;;1.00;0.90;;;;;;;5.37;100.00;91223.25;2131807;27;20467;-72
2022/11/18 00:35:26;;;;;;;1.33;0.80;;;;;;;5.50;100.00;91217.91;2131145;27;20075;-72
2022/11/18 00:36:28;;;;;;;1.17;0.80;;;;;;;5.43;100.00;91228.72;2131395;27;20095;-72
2022/11/18 00:37:29;;;;;;;1.75;0.77;;;;;;;5.43;100.00;91231.38;2131643;27;20034;-72
2022/11/18 00:38:30;;;;;;;0.93;0.77;;;;;;;5.43;100.00;91228.72;2131487;27;20030;-72
2022/11/18 00:39:31;;;;;;;1.52;0.98;;;;;;;5.41;100.00;91225.78;2130811;27;20031;-72
2022/11/18 00:40:32;;;;;;;2.08;0.80;;;;;;;5.41;100.00;91223.13;2130978;27;20023;-73
2022/11/18 00:42:53;;;;;;;1.60;0.90;;;;;;;5.59;100.00;91230.50;2131769;27;20553;-72
2022/11/18 00:43:54;;;;;;;1.60;0.70;;;;;;;5.74;100.00;91226.91;2122335;27;20060;-72
2022/11/18 00:44:56;;;;;;;1.63;0.73;;;;;;;5.73;100.00;91230.00;2122537;27;20058;-71
2022/11/18 00:45:57;;;;;;;0.82;0.63;;;;;;;5.66;100.00;91224.94;2130935;27;20097;-72
2022/11/18 00:46:58;;;;;;;6.70;0.98;;;;;;;5.57;100.00;91233.56;2131479;27;20114;-71
2022/11/18 00:47:59;;;;;;;1.27;0.65;;;;;;;5.72;100.00;91226.63;2131892;27;20467;-71
2022/11/18 00:49:00;;;;;;;0.73;0.70;;;;;;;5.58;100.00;91234.31;2122593;27;20019;-72
2022/11/18 00:50:01;;;;;;;1.45;0.68;;;;;;;5.69;100.00;91234.69;2122548;27;20030;-72
2022/11/18 00:51:13;;;;;;;1.15;0.90;;;;;;;5.59;100.00;91238.44;2131276;27;20038;-70
2022/11/18 00:52:13;;;;;;;1.98;0.60;;;;;;;5.49;100.00;91238.38;2131714;27;20070;-70
2022/11/18 00:53:16;;;;;;;1.17;0.80;;;;;;;5.45;100.00;91229.06;2131861;27;20349;-71
2022/11/18 00:54:17;;;;;;;2.38;0.60;;;;;;;5.44;100.00;91235.50;2132533;27;20078;-70
2022/11/18 00:55:18;;;;;;;3.15;0.80;;;;;;;5.41;100.00;91242.41;2132736;27;20066;-71
2022/11/18 00:56:19;;;;;;;1.40;0.65;;;;;;;5.43;100.00;91237.41;2131559;27;20037;-73
2022/11/18 00:57:20;;;;;;;0.65;0.60;;;;;;;5.35;100.00;91244.13;2131712;27;20023;-71
2022/11/18 00:58:21;;;;;;;1.58;0.70;;;;;;;5.37;100.00;91235.75;2132000;27;20117;-70
2022/11/18 00:59:22;;;;;;;0.88;0.65;;;;;;;5.44;100.00;91243.47;2131584;27;20086;-72
2022/11/18 01:00:23;;;;;;;2.72;0.50;;;;;;;5.48;100.00;91252.03;2131234;27;20026;-70
2022/11/18 01:01:24;;;;;;;1.08;0.75;;;;;;;5.43;100.00;91247.28;2130838;27;20027;-71
2022/11/18 01:02:25;;;;;;;1.85;0.80;;;;;;;5.54;100.00;91255.63;2131644;27;20023;-71
2022/11/18 01:03:27;;;;;;;0.63;0.60;;;;;;;5.48;100.00;91252.75;2131538;27;20030;-70
2022/11/18 01:04:28;;;;;;;1.98;0.70;;;;;;;5.46;100.00;91252.47;2131241;27;20023;-71
2022/11/18 01:05:29;;;;;;;0.90;0.82;;;;;;;5.41;100.00;91255.66;2131668;27;20041;-71
2022/11/18 01:06:30;;;;;;;2.25;0.70;;;;;;;5.34;100.00;91250.59;2130405;27;20452;-72
2022/11/18 01:07:31;;;;;;;3.00;0.82;;;;;;;5.35;100.00;91244.13;2131686;27;20022;-71
2022/11/18 01:08:32;;;;;;;0.88;0.75;;;;;;;5.38;100.00;91250.47;2131732;27;20026;-71
2022/11/18 01:09:33;;;;;;;2.72;0.90;;;;;;;5.33;100.00;91249.13;2131200;27;20444;-71
2022/11/18 01:10:35;;;;;;;1.40;0.63;;;;;;;5.50;100.00;91255.75;2131662;27;20029;-72
2022/11/18 01:14:16;;;;;;;1.60;0.80;;;;;;;5.34;100.00;91250.59;2122906;27;20027;-71
2022/11/18 01:15:17;;;;;;;2.17;0.70;;;;;;;5.32;100.00;91254.84;2122744;27;20031;-71
2022/11/18 01:16:20;;;;;;;0.40;0.40;;;;;;;5.33;100.00;91258.97;2122614;27;20034;-72
2022/11/18 01:17:21;;;;;;;1.13;0.60;;;;;;;5.28;100.00;91253.03;2125679;27;20058;-71
2022/11/18 01:18:25;;;;;;;3.50;0.60;;;;;;;5.33;100.00;91251.75;2131202;27;20129;-72
2022/11/18 01:19:26;;;;;;;1.13;0.90;;;;;;;5.27;100.00;91259.53;2131347;27;20057;-73
2022/11/18 01:20:27;;;;;;;1.83;0.73;;;;;;;5.29;100.00;91259.06;2122077;27;20031;-72
2022/11/18 01:21:28;;;;;;;1.90;0.60;;;;;;;5.33;100.00;91262.34;2122231;27;20023;-73
2022/11/18 01:22:29;;;;;;;1.83;0.57;;;;;;;5.30;100.00;91265.84;2130867;27;20026;-72
2022/11/18 01:23:31;;;;;;;1.15;0.60;;;;;;;5.29;100.00;91270.41;2131157;27;20050;-73
2022/11/18 01:24:32;;;;;;;2.35;1.05;;;;;;;5.32;100.00;91274.13;2131276;27;20440;-72
2022/11/18 01:25:38;;;;;;;0.68;0.60;;;;;;;5.35;100.00;91264.56;2131317;27;20023;-73
2022/11/18 01:26:39;;;;;;;1.33;0.60;;;;;;;5.34;100.00;91261.19;2130977;27;20019;-72
2022/11/18 01:27:40;;;;;;;0.77;0.60;;;;;;;5.35;100.00;91264.56;2130766;27;20057;-73
2022/11/18 01:28:42;;;;;;;1.23;0.60;;;;;;;5.39;100.00;91267.84;2131341;27;20533;-73
2022/11/18 01:29:43;;;;;;;1.88;0.90;;;;;;;5.39;100.00;91267.84;2132329;27;20082;-71
2022/11/18 01:30:45;;;;;;;0.85;0.70;;;;;;;5.41;100.00;91270.81;2132187;27;20022;-71
2022/11/18 01:31:45;;;;;;;0.63;0.63;;;;;;;5.38;100.00;91261.81;2132153;27;20023;-74
2022/11/18 01:32:46;;;;;;;1.55;1.10;;;;;;;5.37;100.00;91267.53;2130861;27;20361;-73
2022/11/18 01:33:47;;;;;;;1.33;0.60;;;;;;;5.59;100.00;91267.59;2131761;27;20409;-71
2022/11/18 01:34:48;;;;;;;1.98;0.60;;;;;;;5.51;100.00;91278.41;2131337;27;20022;-72
2022/11/18 01:35:49;;;;;;;1.60;0.60;;;;;;;5.50;100.00;91281.50;2131125;27;20417;-74
2022/11/18 01:36:51;;;;;;;0.80;0.65;;;;;;;5.48;100.00;91276.63;2130707;27;20027;-71
2022/11/18 01:37:52;;;;;;;1.88;0.80;;;;;;;5.41;100.00;91271.56;2130256;27;20082;-73
2022/11/18 01:38:54;;;;;;;0.70;0.68;;;;;;;5.37;100.00;91276.22;2105305;28;20135;-72
2022/11/18 01:39:55;;;;;;;0.82;0.50;;;;;;;5.38;100.00;91277.72;2097149;28;20416;-71
2022/11/18 01:40:56;;;;;;;0.75;0.50;;;;;;;5.37;100.00;91275.50;2113315;28;20146;-72
2022/11/18 01:41:57;;;;;;;1.35;0.70;;;;;;;5.41;100.00;91270.81;2122510;27;20035;-72
2022/11/18 01:42:58;;;;;;;2.65;1.00;;;;;;;5.43;100.00;91281.72;2122369;27;20031;-71
2022/11/18 01:44:02;;;;;;;1.80;0.80;;;;;;;5.43;100.00;91279.06;2122615;27;20035;-72
2022/11/18 01:45:09;;;;;;;3.65;1.05;;;;;;;5.43;100.00;91281.72;2122478;27;20074;-72
2022/11/18 01:46:10;;;;;;;1.80;1.00;;;;;;;5.42;100.00;91283.63;2122048;27;20030;-72
2022/11/18 01:47:12;;;;;;;2.90;1.15;;;;;;;5.45;100.00;91284.69;2122547;27;20449;-71
2022/11/18 01:48:19;;;;;;;4.35;1.33;;;;;;;5.43;100.00;91281.72;2122276;27;20061;-72
2022/11/18 01:49:20;;;;;;;2.15;0.80;;;;;;;5.41;100.00;91294.66;2122413;27;20445;-71
2022/11/18 01:50:23;;;;;;;1.65;0.70;;;;;;;5.37;100.00;91286.81;2122418;27;20027;-72
2022/11/18 01:51:33;;;;;;;5.15;0.90;;;;;;;5.42;100.00;91290.84;2122490;27;20748;-72
2022/11/18 01:52:36;;;;;;;2.15;0.70;;;;;;;5.37;100.00;91283.44;2121985;27;20415;-72
2022/11/18 01:53:42;;;;;;;0.80;0.70;;;;;;;5.40;100.00;91290.50;2121688;27;20758;-72
2022/11/18 01:54:51;;;;;;;0.73;0.55;;;;;;;5.37;100.00;91281.53;2131005;27;20022;-72
2022/11/18 01:55:55;;;;;;;1.17;0.60;;;;;;;5.38;100.00;91288.31;2130996;27;20035;-72
2022/11/18 01:57:00;;;;;;;1.73;0.70;;;;;;;5.36;100.00;91290.66;2130662;27;20062;-73
2022/11/18 01:58:06;;;;;;;1.58;0.60;;;;;;;5.48;100.00;91287.22;2130956;27;20369;-72
2022/11/18 01:59:15;;;;;;;2.38;0.70;;;;;;;5.46;100.00;91292.22;2126302;27;20470;-71
2022/11/18 02:00:17;;;;;;;3.35;0.50;;;;;;;5.43;100.00;91284.38;2122395;27;20050;-73
2022/11/18 02:01:18;;;;;;;1.02;0.60;;;;;;;5.41;100.00;91279.50;2122512;27;20031;-72
2022/11/18 02:02:20;;;;;;;1.48;0.60;;;;;;;5.36;100.00;91287.25;2122497;27;20100;-73
2022/11/18 02:03:22;;;;;;;3.83;0.65;;;;;;;5.35;100.00;91285.75;2122396;27;20019;-71
2022/11/18 02:04:24;;;;;;;0.50;0.50;;;;;;;5.34;100.00;91279.00;2122493;27;20022;-72
2022/11/18 02:05:26;;;;;;;0.50;0.50;;;;;;;5.33;100.00;91280.91;2123162;27;20372;-70
2022/11/18 02:06:27;;;;;;;2.13;0.55;;;;;;;5.30;100.00;91287.03;2126690;27;20023;-71
2022/11/18 02:07:28;;;;;;;0.75;0.43;;;;;;;5.35;100.00;91283.84;2131666;27;20388;-70
2022/11/18 02:08:30;;;;;;;1.52;0.40;;;;;;;5.35;100.00;91283.84;2131146;27;20053;-71
2022/11/18 02:09:31;;;;;;;2.28;0.50;;;;;;;5.34;100.00;91279.72;2126687;27;20031;-71
2022/11/18 02:10:32;;;;;;;0.60;0.30;;;;;;;5.29;100.00;91282.91;2122606;27;20030;-73
2022/11/18 02:11:53;;;;;;;2.45;0.35;;;;;;;5.29;100.00;91291.59;2122321;27;20407;-73
2022/11/18 02:12:56;;;;;;;1.70;0.32;;;;;;;5.35;100.00;91288.41;2122411;27;20123;-72
2022/11/18 02:13:58;;;;;;;10.60;1.13;;;;;;;5.33;100.00;91288.84;2122544;27;20076;-72
2022/11/18 02:16:39;;;;;;;;;;;;;;;5.40;100.00;91285.22;2146886;27;20884;-71
2022/11/18 02:18:11;;;;;;;0.90;0.43;;;;;;;5.37;100.00;91286.81;2147203;27;19910;-73
2022/11/18 02:19:56;;;;;;;31.70;1.05;;;;;;;5.37;100.00;91281.53;2146891;27;20112;-75
2022/11/18 02:21:42;;;;;;;0.52;0.40;;;;;;;5.34;100.00;91279.72;2116996;27;20130;-74
2022/11/18 02:23:41;;;;;;;1.30;0.47;;;;;;;5.26;100.00;91283.75;2138230;27;20030;-72
2022/11/18 02:25:09;;;;;;;1.45;0.52;;;;;;;5.29;100.00;91285.56;2124725;27;20038;-72
2022/11/18 02:26:32;;;;;;;3.50;0.55;;;;;;;5.35;100.00;91291.78;2146796;27;20150;-73
2022/11/18 02:27:57;;;;;;;1.80;0.90;;;;;;;5.36;100.00;91295.22;2146691;27;20109;-75
2022/11/18 02:29:23;;;;;;;3.35;1.75;;;;;;;5.29;100.00;91296.16;2146984;27;20242;-73
2022/11/18 02:30:25;;;;;;;7.50;3.63;;;;;;;5.33;100.00;91296.78;2141140;27;20037;-73
2022/11/18 02:31:35;;;;;;;4.72;2.63;;;;;;;5.30;100.00;91305.59;2138277;27;20360;-75
2022/11/18 02:33:16;;;;;;;2.63;1.90;;;;;;;5.30;100.00;91293.09;2138157;27;20061;-69
2022/11/18 02:34:23;;;;;;;1.52;1.25;;;;;;;5.64;100.00;91304.88;2134537;27;20042;-74
2022/11/18 02:35:36;;;;;;;3.10;1.38;;;;;;;5.54;100.00;91306.72;2137885;27;20029;-75
2022/11/18 02:36:56;;;;;;;2.13;0.80;;;;;;;5.52;100.00;91311.69;2137895;27;20033;-75
2022/11/18 02:38:03;;;;;;;;;;;;;;;5.62;100.00;91311.78;2138548;27;20042;-72
2022/11/18 02:39:11;;;;;;;0.30;0.30;;;;;;;5.66;100.00;91307.09;2138134;27;20030;-74
2022/11/18 02:40:18;;;;;;;0.70;0.60;;;;;;;5.81;100.00;91313.44;2138039;27;20027;-74
2022/11/18 02:41:25;;;;;;;1.65;0.35;;;;;;;5.62;100.00;91312.53;2138205;27;20029;-74
2022/11/18 02:42:30;;;;;;;4.20;0.40;;;;;;;5.54;100.00;91317.31;2138120;27;20027;-74
2022/11/18 02:43:35;;;;;;;1.45;0.40;;;;;;;5.49;100.00;91314.47;2138320;27;20498;-73
2022/11/18 02:44:39;;;;;;;1.08;0.30;;;;;;;5.48;100.00;91321.66;2138099;27;20093;-75
2022/11/18 02:45:45;;;;;;;1.33;0.40;;;;;;;5.59;100.00;91315.28;2138059;27;20033;-74
2022/11/18 02:46:52;;;;;;;0.40;0.40;;;;;;;5.44;100.00;91313.06;2138046;27;20445;-75
2022/11/18 02:47:56;;;;;;;1.38;0.30;;;;;;;5.40;100.00;91319.66;2128530;27;20033;-74
2022/11/18 02:49:00;;;;;;;0.77;0.40;;;;;;;5.45;100.00;91319.88;2129676;27;20058;-76
2022/11/18 02:50:06;;;;;;;1.38;0.35;;;;;;;5.43;100.00;91330.16;2138136;27;20137;-71
2022/11/18 02:51:10;;;;;;;1.10;0.20;;;;;;;5.44;100.00;91330.88;2138021;27;20149;-73
2022/11/18 02:52:14;;;;;;;0.85;0.30;;;;;;;5.46;100.00;91329.31;2138138;27;20037;-75
2022/11/18 02:53:19;;;;;;;0.98;0.30;;;;;;;5.55;100.00;91328.66;2137892;27;20027;-73
2022/11/18 02:54:22;;;;;;;1.23;0.30;;;;;;;5.72;100.00;91329.25;2137984;27;20030;-74
2022/11/18 02:55:29;;;;;;;0.52;0.30;;;;;;;5.55;100.00;91329.38;2137994;27;20030;-75
2022/11/18 02:56:32;;;;;;;0.80;0.22;;;;;;;5.65;100.00;91334.78;2128129;27;20350;-76
2022/11/18 02:57:35;;;;;;;0.20;0.20;;;;;;;5.55;100.00;91340.00;2129281;27;20027;-74
2022/11/18 02:58:35;;;;;;;4.57;0.20;;;;;;;5.43;100.00;91335.44;2137810;27;20079;-75
2022/11/18 02:59:36;;;;;;;0.10;0.10;;;;;;;5.41;100.00;91339.72;2138061;27;20099;-76
2022/11/18 03:00:38;;;;;;;0.20;0.20;;;;;;;5.34;100.00;91337.28;2137893;27;20352;-76
2022/11/18 03:01:39;;;;;;;0.40;0.20;;;;;;;5.29;100.00;91336.63;2144793;27;20729;-74
2022/11/18 03:02:43;;;;;;;2.60;0.30;;;;;;;5.33;100.00;91351.69;2146788;27;20034;-74
2022/11/18 03:03:44;;;;;;;0.10;0.10;;;;;;;5.40;100.00;91344.28;2146367;27;20026;-75
2022/11/18 03:04:47;;;;;;;0.88;0.10;;;;;;;5.58;100.00;91354.31;2146810;27;20466;-73
2022/11/18 03:05:56;;;;;;;0.47;0.10;;;;;;;5.62;100.00;91360.25;2146667;27;20067;-74
2022/11/18 03:07:06;;;;;;;0.28;0.15;;;;;;;5.69;100.00;91356.59;2137222;27;20945;-74
2022/11/18 03:08:15;;;;;;;0.10;0.10;;;;;;;5.52;100.00;91363.94;2138032;27;20026;-74
2022/11/18 03:09:24;;;;;;;1.13;0.10;;;;;;;5.34;100.00;91361.84;2141154;27;20400;-73
2022/11/18 03:10:35;;;;;;;0.10;0.10;;;;;;;5.33;100.00;91378.19;2146697;27;20473;-73
2022/11/18 03:11:50;;;;;;;0.32;0.10;;;;;;;5.65;100.00;91369.97;2145951;27;20038;-74
2022/11/18 03:13:27;;;;;;;1.10;0.10;;;;;;;5.41;100.00;91374.16;2146680;27;20025;-72
2022/11/18 03:14:52;;;;;;;1.08;0.10;;;;;;;5.29;100.00;91383.56;2102464;28;20115;-72
2022/11/18 03:16:10;;;;;;;0.10;0.10;;;;;;;5.20;100.00;91378.91;2146236;27;20075;-72
2022/11/18 03:17:33;;;;;;;0.30;0.10;;;;;;;5.36;100.00;91382.63;2145709;27;20375;-71
2022/11/18 03:18:50;;;;;;;0.10;0.10;;;;;;;5.34;100.00;91387.59;2146740;27;20018;-71
2022/11/18 03:20:17;;;;;;;0.10;0.10;;;;;;;5.29;100.00;91399.47;2146648;27;20026;-71
2022/11/18 03:21:34;;;;;;;0.10;0.10;;;;;;;5.04;100.00;91374.44;2134762;27;20045;-71
2022/11/18 03:22:45;;;;;;;0.10;0.10;;;;;;;4.92;100.00;91366.53;2137802;27;20034;-72
2022/11/18 03:24:06;;;;;;;2.70;0.20;;;;;;;4.82;100.00;91359.63;2137570;27;20023;-72
2022/11/18 03:25:17;;;;;;;0.10;0.10;;;;;;;4.76;100.00;91365.44;2138007;27;20364;-73
2022/11/18 03:26:30;;;;;;;1.23;0.17;;;;;;;4.81;100.00;91369.47;2137444;27;20121;-72
2022/11/18 03:27:55;;;;;;;0.10;0.10;;;;;;;4.85;100.00;91370.09;2140758;27;20030;-72
2022/11/18 03:29:11;;;;;;;1.73;0.10;;;;;;;4.86;100.00;91376.13;2140585;27;20034;-74
2022/11/18 03:30:17;;;;;;;0.20;0.20;;;;;;;4.75;100.00;91371.91;2140743;27;20029;-74
2022/11/18 03:31:34;;;;;;;0.10;0.10;;;;;;;5.13;100.00;91378.38;2140636;27;20390;-72
2022/11/18 03:32:43;;;;;;;0.10;0.10;;;;;;;4.93;100.00;91371.38;2125955;27;20019;-72
2022/11/18 03:33:48;;;;;;;0.25;0.10;;;;;;;4.97;100.00;91373.94;2124251;27;20037;-73
2022/11/18 03:34:56;;;;;;;0.10;0.10;;;;;;;4.72;100.00;91361.41;2131887;27;20086;-73
2022/11/18 03:36:01;;;;;;;0.10;0.10;;;;;;;4.67;100.00;91361.94;2131627;27;20019;-75
2022/11/18 03:37:06;;;;;;;0.10;0.10;;;;;;;4.58;100.00;91365.19;2131972;27;20035;-75
2022/11/18 03:38:14;;;;;;;0.10;0.10;;;;;;;4.64;100.00;91373.34;2139490;27;20085;-73
2022/11/18 03:39:18;;;;;;;0.10;0.10;;;;;;;4.73;100.00;91373.47;2140343;27;20030;-73
2022/11/18 03:40:27;;;;;;;0.10;0.10;;;;;;;4.67;100.00;91383.09;2140309;27;20029;-73
2022/11/18 03:41:33;;;;;;;0.47;0.13;;;;;;;4.61;100.00;91387.41;2140692;27;20307;-74
2022/11/18 03:42:40;;;;;;;0.10;0.10;;;;;;;4.57;100.00;91390.19;2138476;27;20049;-73
2022/11/18 03:43:48;;;;;;;0.77;0.20;;;;;;;4.49;100.00;91389.63;2131757;27;20079;-73
2022/11/18 03:44:54;;;;;;;0.10;0.10;;;;;;;4.48;100.00;91395.34;2131676;27;20033;-73
2022/11/18 03:46:06;;;;;;;0.10;0.10;;;;;;;4.50;100.00;91404.31;2131743;27;20110;-73
2022/11/18 03:47:13;;;;;;;0.10;0.10;;;;;;;4.45;100.00;91404.84;2131800;27;20022;-73
2022/11/18 03:48:21;;;;;;;0.88;0.25;;;;;;;4.45;100.00;91399.56;2137078;27;20026;-73
2022/11/18 03:49:32;;;;;;;0.10;0.10;;;;;;;4.39;100.00;91403.88;2140662;27;20107;-73
2022/11/18 03:50:38;;;;;;;0.43;0.15;;;;;;;4.28;100.00;91403.41;2140687;27;20667;-74
2022/11/18 03:51:46;;;;;;;0.10;0.10;;;;;;;4.41;100.00;91406.84;2141430;27;20026;-73
2022/11/18 03:52:50;;;;;;;0.10;0.10;;;;;;;4.26;100.00;91409.13;2140727;27;20029;-73
2022/11/18 03:53:56;;;;;;;0.88;0.15;;;;;;;4.28;100.00;91417.38;2132228;27;20033;-72
2022/11/18 03:55:00;;;;;;;0.35;0.13;;;;;;;4.29;100.00;91413.56;2131986;27;20026;-73
2022/11/18 03:56:11;;;;;;;0.10;0.10;;;;;;;4.24;100.00;91416.72;2131672;27;20112;-74
2022/11/18 03:57:20;;;;;;;0.10;0.10;;;;;;;4.49;100.00;91421.38;2132015;27;20026;-74
2022/11/18 03:58:53;;;;;;;0.10;0.10;;;;;;;4.32;100.00;91427.13;2131829;27;20030;-74
2022/11/18 04:00:02;;;;;;;0.90;0.10;;;;;;;4.29;100.00;91418.13;2131105;27;20107;-73
2022/11/18 04:01:11;;;;;;;0.10;0.10;;;;;;;4.40;100.00;91423.88;2131926;27;20034;-72
2022/11/18 04:02:25;;;;;;;0.20;0.20;;;;;;;4.41;100.00;91427.25;2131868;27;20027;-73
2022/11/18 04:03:26;;;;;;;0.32;0.10;;;;;;;4.31;100.00;91423.75;2131524;27;20030;-74
2022/11/18 04:04:27;;;;;;;0.13;0.13;;;;;;;4.50;100.00;91419.47;2131843;27;20472;-73
2022/11/18 04:05:34;;;;;;;0.13;0.13;;;;;;;4.45;100.00;91430.56;2131751;27;20366;-73
2022/11/18 04:06:41;;;;;;;0.28;0.20;;;;;;;4.37;100.00;91423.97;2131355;27;20067;-72
2022/11/18 04:07:51;;;;;;;0.20;0.20;;;;;;;4.31;100.00;91423.00;2131714;27;20066;-73
2022/11/18 04:08:55;;;;;;;0.10;0.10;;;;;;;4.28;100.00;91430.59;2132070;27;20045;-72
2022/11/18 04:10:03;;;;;;;0.40;0.10;;;;;;;4.23;100.00;91417.88;2140522;27;20372;-73
2022/11/18 04:12:01;;;;;;;0.10;0.10;;;;;;;4.22;100.00;91424.34;2139578;27;20031;-74
2022/11/18 04:12:41;;;;;;;0.20;0.10;;;;;;;4.28;100.00;91429.84;2140014;27;20026;-73
2022/11/18 04:13:43;;;;;;;0.20;0.20;;;;;;;4.22;100.00;91434.19;2140032;27;20034;-74
2022/11/18 04:14:46;;;;;;;0.10;0.10;;;;;;;4.20;100.00;91428.53;2140318;27;20049;-73
2022/11/18 04:15:47;;;;;;;0.70;0.10;;;;;;;4.23;100.00;91433.00;2139932;27;20025;-73
2022/11/18 04:16:52;;;;;;;0.65;0.28;;;;;;;4.29;100.00;91436.63;2139954;27;20026;-72
2022/11/18 04:17:53;;;;;;;0.43;0.13;;;;;;;4.24;100.00;91431.84;2140286;27;20033;-72
2022/11/18 04:18:54;;;;;;;1.20;0.32;;;;;;;4.27;100.00;91431.03;2139716;27;20916;-75
2022/11/18 04:19:55;;;;;;;0.30;0.20;;;;;;;4.23;100.00;91433.00;2140350;27;20616;-74
2022/11/18 04:20:56;;;;;;;0.32;0.20;;;;;;;4.40;100.00;91431.81;2140167;27;20022;-72
2022/11/18 04:21:57;;;;;;;0.68;0.20;;;;;;;4.32;100.00;91433.16;2131036;27;20069;-74
2022/11/18 04:22:58;;;;;;;4.55;0.22;;;;;;;4.31;100.00;91433.59;2122270;27;20072;-73
2022/11/18 04:23:59;;;;;;;0.50;0.20;;;;;;;4.31;100.00;91434.31;2130985;27;20027;-73
2022/11/18 04:25:00;;;;;;;0.30;0.20;;;;;;;4.26;100.00;91435.56;2133569;27;20113;-74
2022/11/18 04:26:01;;;;;;;1.38;0.20;;;;;;;4.34;100.00;91435.38;2131290;27;20019;-73
2022/11/18 04:27:03;;;;;;;0.35;0.10;;;;;;;4.37;100.00;91442.47;2131979;27;20075;-73
2022/11/18 04:28:04;;;;;;;0.13;0.13;;;;;;;4.37;100.00;91442.47;2132065;27;20026;-74
2022/11/18 04:29:05;;;;;;;0.10;0.10;;;;;;;4.34;100.00;91441.41;2131655;27;20026;-73
2022/11/18 04:30:07;;;;;;;0.43;0.20;;;;;;;4.35;100.00;91439.53;2131718;27;20041;-73
2022/11/18 04:31:08;;;;;;;0.55;0.20;;;;;;;4.33;100.00;91444.47;2131802;27;20433;-73
2022/11/18 04:32:09;;;;;;;0.10;0.10;;;;;;;4.37;100.00;91443.22;2131890;27;20026;-73
2022/11/18 04:33:10;;;;;;;0.85;0.20;;;;;;;4.32;100.00;91446.38;2131601;27;20117;-74
2022/11/18 04:34:11;;;;;;;0.15;0.10;;;;;;;4.33;100.00;91449.75;2131399;27;20027;-74
2022/11/18 04:35:12;;;;;;;0.10;0.10;;;;;;;4.31;100.00;91446.81;2135547;27;20034;-75
2022/11/18 04:36:13;;;;;;;0.10;0.10;;;;;;;4.35;100.00;91444.81;2137275;27;20142;-73
2022/11/18 04:37:14;;;;;;;0.10;0.10;;;;;;;4.40;100.00;91452.97;2131492;27;20039;-74
2022/11/18 04:38:15;;;;;;;1.65;0.10;;;;;;;4.37;100.00;91453.81;2131443;27;20083;-74
2022/11/18 04:39:17;;;;;;;0.60;0.10;;;;;;;4.38;100.00;91455.28;2130844;27;20030;-73
2022/11/18 04:40:18;;;;;;;0.13;0.13;;;;;;;4.34;100.00;91456.53;2134280;27;20033;-73
2022/11/18 04:41:18;;;;;;;0.10;0.10;;;;;;;4.30;100.00;91451.31;2139994;27;20050;-72
2022/11/18 04:42:19;;;;;;;0.28;0.10;;;;;;;4.32;100.00;91456.97;2140041;27;20341;-73
2022/11/18 04:43:20;;;;;;;0.22;0.10;;;;;;;4.30;100.00;91453.97;2140231;27;20142;-75
2022/11/18 04:44:25;;;;;;;0.60;0.10;;;;;;;4.28;100.00;91454.41;2140212;27;20674;-73
2022/11/18 04:45:26;;;;;;;0.52;0.10;;;;;;;4.35;100.00;91445.56;2140123;27;20273;-73
2022/11/18 04:46:27;;;;;;;1.27;0.20;;;;;;;4.38;100.00;91457.19;2138966;27;20034;-74
2022/11/18 04:47:28;;;;;;;0.10;0.10;;;;;;;4.43;100.00;91456.66;2139934;27;20045;-73
2022/11/18 04:48:29;;;;;;;0.10;0.10;;;;;;;4.45;100.00;91463.03;2140034;27;20026;-73
2022/11/18 04:49:31;;;;;;;0.10;0.10;;;;;;;4.46;100.00;91461.88;2140172;27;20022;-73
2022/11/18 04:50:32;;;;;;;0.55;0.10;;;;;;;4.42;100.00;91455.19;2140047;27;20022;-74
2022/11/18 04:51:33;;;;;;;0.95;0.20;;;;;;;4.37;100.00;91458.34;2139399;27;20635;-73
2022/11/18 04:52:34;;;;;;;0.15;0.15;;;;;;;4.36;100.00;91452.31;2140178;27;20101;-74
2022/11/18 04:53:35;;;;;;;1.25;0.25;;;;;;;4.35;100.00;91461.41;2140204;27;20471;-75
2022/11/18 04:54:36;;;;;;;1.80;0.30;;;;;;;4.36;100.00;91456.88;2140112;27;20069;-73
2022/11/18 04:55:37;;;;;;;0.20;0.20;;;;;;;4.36;100.00;91460.25;2139983;27;20113;-74
2022/11/18 04:56:38;;;;;;;3.10;0.20;;;;;;;4.35;100.00;91460.69;2138906;27;20014;-73
2022/11/18 04:57:39;;;;;;;1.30;0.20;;;;;;;4.33;100.00;91460.34;2139783;27;20496;-74
2022/11/18 04:58:40;;;;;;;0.10;0.10;;;;;;;4.26;100.00;91458.63;2140064;27;20026;-73
2022/11/18 04:59:41;;;;;;;0.20;0.20;;;;;;;4.28;100.00;91457.03;2139983;27;20046;-74
2022/11/18 05:00:42;;;;;;;1.20;0.52;;;;;;;4.30;100.00;91453.97;2140129;27;20030;-74
2022/11/18 05:01:43;;;;;;;0.10;0.10;;;;;;;4.32;100.00;91456.22;2134838;27;20106;-73
2022/11/18 05:02:44;;;;;;;0.50;0.20;;;;;;;4.33;100.00;91457.69;2131161;27;20034;-75
2022/11/18 05:03:45;;;;;;;0.10;0.10;;;;;;;4.31;100.00;91463.41;2131355;27;20472;-74
2022/11/18 05:04:46;;;;;;;1.48;0.10;;;;;;;4.32;100.00;91456.22;2131443;27;20019;-72
2022/11/18 05:05:47;;;;;;;0.60;0.10;;;;;;;4.35;100.00;91460.69;2131383;27;20030;-74
2022/11/18 05:06:48;;;;;;;0.25;0.10;;;;;;;4.34;100.00;91456.53;2134102;27;20026;-74
2022/11/18 05:07:50;;;;;;;0.20;0.20;;;;;;;4.40;100.00;91460.91;2139848;27;20018;-73
2022/11/18 05:08:51;;;;;;;0.28;0.15;;;;;;;4.39;100.00;91453.38;2139849;27;20732;-74
2022/11/18 05:09:52;;;;;;;1.35;0.20;;;;;;;4.42;100.00;91458.56;2139947;27;20081;-73
2022/11/18 05:12:47;;;;;;;0.20;0.20;;;;;;;4.44;100.00;91458.91;2139327;27;20074;-73
2022/11/18 05:13:33;;;;;;;1.67;0.10;;;;;;;4.64;100.00;91460.66;2134705;27;20034;-73
2022/11/18 05:14:35;;;;;;;0.50;0.20;;;;;;;4.50;100.00;91461.78;2136310;27;20030;-74
2022/11/18 05:15:36;;;;;;;1.90;1.40;;;;;;;4.60;100.00;91460.03;2136148;27;20069;-73
2022/11/18 05:16:37;;;;;;;1.23;0.80;;;;;;;4.58;100.00;91457.06;2134144;27;20515;-73
2022/11/18 05:17:38;;;;;;;1.77;0.80;;;;;;;4.52;100.00;91459.47;2131593;27;20038;-75